LDOB weather

Public forecast

Using degrees Celsius for public forecast. Weather courtesy of forecast.io.

Closest aviation weather report (METAR) to Vukovar Borovo N Airport

Closest report is Osijek Airport, 7.9 nm (14.6 km) NW. Retrieved 2020/08/10 03:00 UTC (14 minutes ago):

LDOS 100300Z 26003KT CAVOK 18/18 Q1015

Closest aviation forecast (TAF) to Vukovar Borovo N Airport

Closest forecast is Osijek Airport, 7.9 nm (14.6 km) NW. Retrieved 2020-08-10 00:00 UTC (3 hours ago):

TAF LDOS 092325Z 1000/1100 31004KT CAVOK TX31/1013Z TN19/1001Z PROB30 1002/1006 3000 BR PROB30 TEMPO 1016/1018 -TSRA FEW035CB